Time;durP1;ratioP1;P1;durP2;ratioP2;P2;SDS_P1;SDS_P2;PMS_P1;PMS_P2;Temp;Humidity;BMP_temperature;BMP_pressure;BME280_temperature;BME280_humidity;BME280_pressure;Samples;Min_cycle;Max_cycle;Signal;HPM_P1;HPM_P2
2023/08/02 00:01:53;;;;;;;36.00;17.10;;;19.40;73.80;;;;;;4944812;28;20059;-69
2023/08/02 00:04:21;;;;;;;28.80;15.18;;;19.40;73.50;;;;;;4951347;28;20047;-68
2023/08/02 00:06:48;;;;;;;30.52;14.88;;;19.30;73.80;;;;;;4955775;28;20054;-68
2023/08/02 00:09:16;;;;;;;32.80;15.15;;;19.60;73.40;;;;;;4951720;28;20074;-68
2023/08/02 00:11:43;;;;;;;32.22;15.27;;;19.60;73.90;;;;;;4953937;28;20101;-68
2023/08/02 00:14:10;;;;;;;35.00;14.48;;;19.70;73.50;;;;;;4955950;28;20167;-68
2023/08/02 00:16:38;;;;;;;35.00;15.93;;;19.90;73.50;;;;;;4953961;28;20384;-68
2023/08/02 00:19:05;;;;;;;33.53;15.95;;;20.40;72.90;;;;;;4943628;28;20492;-68
2023/08/02 00:21:32;;;;;;;32.45;14.68;;;21.00;70.70;;;;;;4953532;28;20495;-68
2023/08/02 00:24:00;;;;;;;29.27;12.63;;;21.20;71.10;;;;;;4948680;28;20042;-69
2023/08/02 00:26:28;;;;;;;19.52;7.93;;;21.60;69.70;;;;;;4954721;28;20034;-69
2023/08/02 00:28:56;;;;;;;21.35;6.80;;;22.20;65.60;;;;;;4949401;28;20423;-68
2023/08/02 00:31:23;;;;;;;21.73;6.40;;;22.40;66.40;;;;;;4952211;28;20031;-69
2023/08/02 00:33:50;;;;;;;18.13;5.72;;;23.20;65.20;;;;;;4945601;28;20121;-69
2023/08/02 00:36:18;;;;;;;21.13;7.35;;;23.70;63.40;;;;;;4953528;28;20031;-68
2023/08/02 00:38:45;;;;;;;21.50;6.80;;;23.90;60.80;;;;;;4968464;28;20035;-68
2023/08/02 00:41:13;;;;;;;22.05;6.15;;;23.70;60.40;;;;;;4952853;28;20027;-68
2023/08/02 00:43:46;;;;;;;22.90;6.13;;;23.30;60.90;;;;;;4949887;28;20044;-67
2023/08/02 00:46:18;;;;;;;17.92;5.40;;;23.00;61.70;;;;;;4957309;28;20024;-67
2023/08/02 00:48:46;;;;;;;21.63;6.70;;;22.40;63.10;;;;;;4947126;28;20023;-67
2023/08/02 00:51:18;;;;;;;25.48;6.82;;;22.10;63.60;;;;;;4952712;28;20035;-67
2023/08/02 00:53:46;;;;;;;23.67;6.97;;;22.00;63.20;;;;;;4951333;28;20110;-67
2023/08/02 00:56:16;;;;;;;17.63;5.65;;;21.70;64.80;;;;;;4950705;28;20047;-68
2023/08/02 00:58:44;;;;;;;26.27;8.05;;;21.80;65.70;;;;;;4953744;28;20570;-68
2023/08/02 01:01:11;;;;;;;20.80;7.55;;;21.90;63.90;;;;;;4951577;28;20037;-68
2023/08/02 01:03:41;;;;;;;26.23;8.25;;;21.40;66.30;;;;;;4952547;28;20046;-67
2023/08/02 01:06:20;;;;;;;17.80;6.85;;;21.20;66.20;;;;;;4959510;28;20047;-67
2023/08/02 01:09:02;;;;;;;26.90;6.70;;;20.70;67.30;;;;;;4944587;29;20824;-67
2023/08/02 01:12:03;;;;;;;24.75;7.20;;;20.20;69.10;;;;;;4951305;28;20414;-68
2023/08/02 01:14:33;;;;;;;22.60;6.75;;;20.20;71.00;;;;;;4942263;28;20130;-67
2023/08/02 01:17:03;;;;;;;22.85;7.50;;;20.10;71.10;;;;;;4949479;28;20672;-67
2023/08/02 01:19:31;;;;;;;20.40;5.28;;;20.10;70.30;;;;;;4948176;28;20995;-68
2023/08/02 01:21:59;;;;;;;15.50;4.57;;;20.10;70.00;;;;;;4953877;28;20039;-68
2023/08/02 01:24:33;;;;;;;16.45;5.22;;;20.00;70.90;;;;;;4948438;28;20124;-68
2023/08/02 01:27:07;;;;;;;18.60;5.35;;;19.90;71.30;;;;;;4952913;28;20370;-70
2023/08/02 01:29:36;;;;;;;18.85;5.13;;;19.70;72.60;;;;;;4947445;28;20027;-68
2023/08/02 01:32:04;;;;;;;19.20;5.22;;;19.60;72.70;;;;;;4938308;28;20058;-68
2023/08/02 01:34:32;;;;;;;13.50;4.38;;;19.80;71.30;;;;;;4943981;28;20466;-67
2023/08/02 01:37:00;;;;;;;16.02;4.53;;;19.50;71.50;;;;;;4966589;28;20074;-68
2023/08/02 01:39:27;;;;;;;21.15;5.63;;;19.50;71.80;;;;;;4946100;28;20027;-67
2023/08/02 01:41:55;;;;;;;16.10;4.63;;;19.40;72.40;;;;;;4950020;28;20694;-67
2023/08/02 01:44:22;;;;;;;16.88;4.65;;;19.30;72.20;;;;;;4951981;28;20047;-68
2023/08/02 01:46:49;;;;;;;15.40;5.30;;;19.70;72.60;;;;;;4952248;28;20023;-68
2023/08/02 01:49:17;;;;;;;20.23;4.00;;;20.30;69.90;;;;;;4949525;28;20027;-68
2023/08/02 01:51:44;;;;;;;19.45;3.97;;;20.30;68.90;;;;;;4943573;28;20071;-67
2023/08/02 01:54:11;;;;;;;28.52;4.72;;;20.30;69.40;;;;;;4945392;28;20034;-67
2023/08/02 01:56:39;;;;;;;20.08;4.75;;;20.40;68.00;;;;;;4949213;28;20031;-66
2023/08/02 01:59:06;;;;;;;12.55;3.65;;;20.20;69.20;;;;;;4947629;28;20540;-67
2023/08/02 02:01:33;;;;;;;14.63;3.53;;;20.20;70.20;;;;;;4946417;28;20046;-68
2023/08/02 02:04:01;;;;;;;14.82;4.22;;;20.40;68.50;;;;;;4955655;28;20512;-68
2023/08/02 02:06:28;;;;;;;14.73;3.15;;;20.10;69.70;;;;;;4946588;28;20181;-67
2023/08/02 02:08:55;;;;;;;19.48;3.45;;;20.10;69.90;;;;;;4948324;28;20035;-67
2023/08/02 02:11:23;;;;;;;22.33;4.45;;;19.70;70.40;;;;;;4950478;28;20114;-68
2023/08/02 02:13:50;;;;;;;18.00;4.10;;;19.50;71.80;;;;;;4951920;28;20027;-68
2023/08/02 02:16:17;;;;;;;18.08;4.70;;;19.80;71.40;;;;;;4948551;28;20031;-68
2023/08/02 02:18:44;;;;;;;21.67;4.65;;;19.70;70.90;;;;;;4947322;28;20023;-68
2023/08/02 02:21:12;;;;;;;16.85;4.05;;;18.70;74.00;;;;;;4951607;28;20045;-68
2023/08/02 02:23:39;;;;;;;16.55;4.35;;;18.60;75.50;;;;;;4961001;28;20057;-68
2023/08/02 02:26:07;;;;;;;16.33;3.88;;;18.80;74.70;;;;;;4947522;28;20027;-67
2023/08/02 02:28:34;;;;;;;18.58;3.90;;;18.70;75.10;;;;;;4941925;28;20453;-68
2023/08/02 02:31:01;;;;;;;11.80;3.25;;;18.60;75.70;;;;;;4944964;28;20023;-69
2023/08/02 02:33:29;;;;;;;18.58;4.10;;;18.30;76.70;;;;;;4960136;28;20074;-68
2023/08/02 02:35:57;;;;;;;14.88;3.58;;;18.30;77.40;;;;;;4952480;28;20054;-67
2023/08/02 02:38:24;;;;;;;12.93;3.03;;;18.20;77.90;;;;;;4946930;28;20374;-68
2023/08/02 02:40:51;;;;;;;15.52;3.70;;;18.30;78.10;;;;;;4947081;28;20031;-67
2023/08/02 02:43:19;;;;;;;12.02;3.33;;;18.40;77.80;;;;;;4942213;28;20043;-68
2023/08/02 02:45:46;;;;;;;12.07;3.53;;;18.50;77.70;;;;;;4949805;28;20031;-68
2023/08/02 02:48:13;;;;;;;11.20;3.05;;;18.70;77.40;;;;;;4949017;28;20039;-67
2023/08/02 02:50:40;;;;;;;15.50;3.47;;;18.80;78.60;;;;;;4949181;28;20597;-67
2023/08/02 02:53:08;;;;;;;16.23;3.60;;;19.20;76.20;;;;;;4951014;28;20074;-67
2023/08/02 02:55:35;;;;;;;18.95;4.05;;;19.30;76.20;;;;;;4951141;28;20039;-67
2023/08/02 02:58:02;;;;;;;16.98;3.30;;;19.80;73.80;;;;;;4940401;28;20051;-67
2023/08/02 03:00:31;;;;;;;15.75;4.13;;;20.00;72.90;;;;;;4946338;28;20145;-68
2023/08/02 03:02:59;;;;;;;20.75;3.75;;;20.60;70.40;;;;;;4952316;28;20051;-67
2023/08/02 03:05:26;;;;;;;20.80;3.83;;;20.80;69.70;;;;;;4950759;28;20102;-67
2023/08/02 03:07:53;;;;;;;17.83;3.83;;;21.10;67.30;;;;;;4946397;28;20074;-68
2023/08/02 03:10:21;;;;;;;13.48;3.33;;;21.30;66.80;;;;;;4951945;28;20106;-68
2023/08/02 03:12:48;;;;;;;16.35;3.72;;;21.20;65.90;;;;;;4950732;28;20027;-68
2023/08/02 03:15:15;;;;;;;15.30;4.20;;;21.30;66.20;;;;;;4952697;28;20031;-68
2023/08/02 03:17:43;;;;;;;16.77;3.17;;;21.60;64.40;;;;;;4946560;28;20080;-68
2023/08/02 03:20:10;;;;;;;16.63;3.97;;;21.80;64.80;;;;;;4943664;28;20031;-69
2023/08/02 03:22:38;;;;;;;16.45;3.55;;;22.20;63.00;;;;;;4948980;28;20061;-68
2023/08/02 03:25:05;;;;;;;15.90;4.13;;;22.30;62.70;;;;;;4951072;28;20074;-68
2023/08/02 03:27:33;;;;;;;18.73;3.60;;;22.30;62.50;;;;;;4945884;28;20031;-68
2023/08/02 03:30:00;;;;;;;12.40;3.28;;;22.20;62.10;;;;;;4955213;28;20485;-67
2023/08/02 03:32:28;;;;;;;11.00;3.17;;;22.50;61.40;;;;;;4931866;28;20080;-67
2023/08/02 03:34:55;;;;;;;14.57;3.40;;;22.70;61.30;;;;;;4944903;28;20051;-67
2023/08/02 03:37:22;;;;;;;15.40;3.28;;;23.00;60.90;;;;;;4936346;28;20493;-66
2023/08/02 03:39:50;;;;;;;15.80;3.15;;;23.10;59.70;;;;;;4945279;28;20031;-68
2023/08/02 03:42:17;;;;;;;16.23;3.85;;;23.10;59.60;;;;;;4947114;28;20038;-67
2023/08/02 03:44:44;;;;;;;23.23;3.88;;;22.90;60.40;;;;;;4945999;28;20077;-68
2023/08/02 03:47:12;;;;;;;13.30;2.92;;;22.80;59.30;;;;;;4950110;28;20122;-67
2023/08/02 03:49:39;;;;;;;17.20;3.50;;;22.50;59.90;;;;;;4943717;28;20552;-67
2023/08/02 03:52:07;;;;;;;14.93;3.00;;;22.30;60.60;;;;;;4947027;28;20016;-66
2023/08/02 03:54:34;;;;;;;18.90;3.58;;;22.20;61.40;;;;;;4946743;28;20094;-66
2023/08/02 03:57:01;;;;;;;17.38;3.22;;;21.80;62.70;;;;;;4940319;28;20139;-68
2023/08/02 03:59:29;;;;;;;15.45;3.25;;;21.80;62.50;;;;;;4944292;28;20057;-67
2023/08/02 04:01:56;;;;;;;14.93;3.20;;;21.80;62.20;;;;;;4944670;28;20582;-67
2023/08/02 04:04:23;;;;;;;14.82;4.00;;;21.30;63.70;;;;;;4941629;28;20125;-68
2023/08/02 04:06:51;;;;;;;12.65;3.28;;;20.80;65.00;;;;;;4941838;28;20163;-68
2023/08/02 04:09:18;;;;;;;20.13;3.70;;;20.60;66.40;;;;;;4943938;28;20027;-69
2023/08/02 04:11:45;;;;;;;15.57;3.35;;;20.40;66.90;;;;;;4943578;28;20049;-67
2023/08/02 04:14:13;;;;;;;14.20;3.03;;;20.30;67.70;;;;;;4953706;28;20034;-68
2023/08/02 04:16:40;;;;;;;17.17;3.65;;;20.40;68.00;;;;;;4950726;28;20073;-68
2023/08/02 04:19:07;;;;;;;15.77;3.40;;;20.20;68.40;;;;;;4951282;28;20023;-68
2023/08/02 04:21:35;;;;;;;21.35;3.70;;;20.10;69.00;;;;;;4948354;28;20023;-69
2023/08/02 04:24:02;;;;;;;22.00;4.43;;;20.30;69.50;;;;;;4945977;28;20117;-68
2023/08/02 04:26:29;;;;;;;16.17;3.67;;;20.30;69.30;;;;;;4949177;28;20498;-69
2023/08/02 04:28:57;;;;;;;18.90;3.83;;;20.40;69.30;;;;;;4952251;28;20022;-68
2023/08/02 04:31:24;;;;;;;14.38;3.17;;;20.10;70.40;;;;;;4944080;28;20093;-68
2023/08/02 04:33:51;;;;;;;21.75;3.55;;;20.30;70.70;;;;;;4949688;28;20073;-67
2023/08/02 04:36:19;;;;;;;16.00;3.95;;;20.40;70.10;;;;;;4952415;28;20034;-68
2023/08/02 04:38:46;;;;;;;15.50;3.22;;;20.60;69.70;;;;;;4955095;28;20440;-68
2023/08/02 04:41:17;;;;;;;12.60;2.58;;;20.40;69.40;;;;;;4953337;28;20109;-68
2023/08/02 04:43:46;;;;;;;16.70;3.13;;;20.30;70.00;;;;;;4950433;28;20044;-68
2023/08/02 04:46:13;;;;;;;24.05;3.40;;;20.40;69.50;;;;;;4950924;28;20469;-68
2023/08/02 04:48:40;;;;;;;17.58;3.45;;;20.10;70.90;;;;;;4967662;28;20039;-68
2023/08/02 04:51:09;;;;;;;16.23;3.35;;;20.20;71.10;;;;;;4951660;28;20065;-67
2023/08/02 04:53:36;;;;;;;16.08;2.90;;;20.10;71.20;;;;;;4945029;28;20351;-69
2023/08/02 04:56:09;;;;;;;14.63;2.95;;;20.10;72.20;;;;;;4955524;28;20030;-67
2023/08/02 04:58:36;;;;;;;14.45;2.70;;;20.00;71.80;;;;;;4952734;28;20047;-68
2023/08/02 05:01:04;;;;;;;15.55;3.42;;;20.10;70.90;;;;;;4966460;28;20035;-67
2023/08/02 05:03:36;;;;;;;13.30;3.22;;;20.20;70.90;;;;;;4949293;28;20043;-67
2023/08/02 05:06:05;;;;;;;12.13;2.65;;;20.30;71.40;;;;;;4955786;28;20031;-66
2023/08/02 05:08:36;;;;;;;18.65;3.45;;;20.20;71.50;;;;;;4946027;28;20038;-67
2023/08/02 05:11:08;;;;;;;16.50;3.65;;;20.00;72.40;;;;;;4949027;28;20276;-66
2023/08/02 05:13:36;;;;;;;15.85;2.75;;;19.70;73.00;;;;;;4943152;28;20039;-66
2023/08/02 05:16:05;;;;;;;10.85;2.60;;;19.80;73.20;;;;;;4948301;28;20038;-67
2023/08/02 05:18:32;;;;;;;10.32;2.60;;;19.80;73.60;;;;;;4948878;28;20027;-68
2023/08/02 05:20:59;;;;;;;9.38;2.20;;;19.70;73.20;;;;;;4947969;28;20477;-67
2023/08/02 05:23:27;;;;;;;11.80;2.42;;;19.80;72.80;;;;;;4949198;28;20034;-67
2023/08/02 05:25:55;;;;;;;19.05;3.00;;;19.90;72.80;;;;;;4945259;28;20113;-68
2023/08/02 05:28:23;;;;;;;13.73;3.15;;;19.80;73.80;;;;;;4946965;28;20062;-67
2023/08/02 05:30:50;;;;;;;33.40;4.20;;;19.80;73.20;;;;;;4949276;28;20332;-67
2023/08/02 05:33:17;;;;;;;37.30;3.95;;;20.00;72.90;;;;;;4947970;28;20094;-68
2023/08/02 05:35:44;;;;;;;62.88;4.88;;;20.10;71.90;;;;;;4949663;28;20096;-68
2023/08/02 05:38:12;;;;;;;14.18;2.72;;;19.90;71.20;;;;;;4940858;28;20042;-67
2023/08/02 05:40:39;;;;;;;10.27;2.60;;;19.90;71.70;;;;;;4942482;28;20457;-68
2023/08/02 05:43:07;;;;;;;7.55;1.95;;;19.70;71.90;;;;;;4948270;28;20027;-67
2023/08/02 05:45:35;;;;;;;10.55;2.40;;;19.60;71.90;;;;;;4950604;28;20030;-67
2023/08/02 05:48:02;;;;;;;13.38;2.67;;;19.60;72.30;;;;;;4945413;28;20497;-66
2023/08/02 05:50:30;;;;;;;14.57;2.88;;;19.60;72.70;;;;;;4953345;28;20035;-67
2023/08/02 05:52:57;;;;;;;5.97;1.95;;;19.60;72.60;;;;;;4948407;28;20020;-67
2023/08/02 05:55:24;;;;;;;8.73;2.15;;;19.80;71.90;;;;;;4944890;28;20027;-67
2023/08/02 05:57:52;;;;;;;8.02;2.08;;;20.00;70.30;;;;;;4943003;28;21491;-67
2023/08/02 06:00:19;;;;;;;8.98;2.28;;;19.90;70.20;;;;;;4948028;28;20031;-67
2023/08/02 06:02:46;;;;;;;11.85;2.13;;;19.90;70.50;;;;;;4943683;28;20083;-67
2023/08/02 06:05:14;;;;;;;5.93;2.08;;;20.10;70.20;;;;;;4947714;28;20043;-67
2023/08/02 06:07:41;;;;;;;12.98;2.20;;;20.10;69.80;;;;;;4942944;28;20066;-68
2023/08/02 06:10:09;;;;;;;12.68;2.80;;;20.20;69.00;;;;;;4949808;28;20043;-68
2023/08/02 06:12:36;;;;;;;11.95;2.35;;;20.20;69.10;;;;;;4946030;28;20589;-67
2023/08/02 06:15:04;;;;;;;12.48;2.63;;;20.20;68.70;;;;;;4950016;28;20039;-67
2023/08/02 06:17:31;;;;;;;11.75;2.63;;;20.20;69.10;;;;;;4948833;28;20028;-68
2023/08/02 06:19:59;;;;;;;9.68;2.00;;;20.10;69.60;;;;;;4952070;28;20037;-68
2023/08/02 06:22:27;;;;;;;17.80;2.67;;;20.30;69.10;;;;;;4943301;28;20034;-68
2023/08/02 06:24:54;;;;;;;15.68;2.83;;;20.30;68.90;;;;;;4945936;28;20050;-68
2023/08/02 06:27:21;;;;;;;20.45;3.33;;;20.30;69.00;;;;;;4948549;28;20078;-68
2023/08/02 06:29:49;;;;;;;19.10;3.30;;;20.30;69.30;;;;;;4941833;28;20112;-67
2023/08/02 06:32:16;;;;;;;16.17;2.88;;;20.20;70.80;;;;;;4948244;28;20081;-68
2023/08/02 06:34:43;;;;;;;20.00;4.25;;;20.00;71.70;;;;;;4946894;28;20413;-68
2023/08/02 06:37:11;;;;;;;24.48;4.53;;;19.90;72.10;;;;;;4950903;28;20062;-68
2023/08/02 06:39:38;;;;;;;21.92;4.00;;;19.70;73.70;;;;;;4945298;28;20485;-67
2023/08/02 06:42:07;;;;;;;16.60;3.85;;;19.50;75.10;;;;;;4946671;28;20043;-67
2023/08/02 06:44:34;;;;;;;11.90;2.80;;;19.30;76.30;;;;;;4946588;28;20043;-68
2023/08/02 06:47:02;;;;;;;17.42;3.15;;;19.10;77.10;;;;;;4952655;28;20024;-69
2023/08/02 06:49:29;;;;;;;16.90;3.50;;;19.00;77.50;;;;;;4939465;28;20110;-68
2023/08/02 06:52:00;;;;;;;26.10;3.20;;;19.00;77.80;;;;;;4945893;28;20455;-67
2023/08/02 06:54:27;;;;;;;21.55;3.88;;;19.10;77.80;;;;;;4947853;28;20414;-68
2023/08/02 06:56:54;;;;;;;23.42;3.67;;;19.00;78.10;;;;;;4949094;28;20050;-68
2023/08/02 06:59:22;;;;;;;20.25;3.05;;;19.00;78.10;;;;;;4945725;28;20481;-68
2023/08/02 07:01:50;;;;;;;31.83;4.28;;;18.90;78.40;;;;;;4947749;28;20031;-67
2023/08/02 07:04:17;;;;;;;18.98;3.80;;;18.80;78.60;;;;;;4945861;28;20484;-67
2023/08/02 07:06:45;;;;;;;29.70;4.20;;;18.70;78.70;;;;;;4943184;28;20031;-69
2023/08/02 07:09:14;;;;;;;17.95;3.80;;;18.70;78.90;;;;;;4940606;28;20054;-68
2023/08/02 07:11:41;;;;;;;22.02;3.33;;;18.60;79.20;;;;;;4946494;28;20032;-69
2023/08/02 07:14:09;;;;;;;27.98;3.63;;;18.50;79.70;;;;;;4947066;28;20400;-69
2023/08/02 07:16:36;;;;;;;18.90;2.83;;;18.30;80.30;;;;;;4946153;28;20503;-66
2023/08/02 07:19:03;;;;;;;18.02;3.25;;;18.10;81.00;;;;;;4949002;28;20023;-68
2023/08/02 07:21:31;;;;;;;21.00;3.00;;;18.10;81.60;;;;;;4947359;28;20353;-68
2023/08/02 07:23:58;;;;;;;23.38;3.40;;;17.90;82.20;;;;;;4948581;28;20479;-68
2023/08/02 07:26:26;;;;;;;14.45;3.53;;;17.70;83.40;;;;;;4948066;28;20035;-68
2023/08/02 07:28:53;;;;;;;19.48;4.05;;;17.60;84.00;;;;;;4946643;28;20480;-68
2023/08/02 07:31:21;;;;;;;20.15;3.65;;;17.50;84.50;;;;;;4947229;28;20043;-67
2023/08/02 07:33:48;;;;;;;22.13;3.50;;;17.40;85.20;;;;;;4945301;28;20492;-68
2023/08/02 07:36:18;;;;;;;19.05;3.47;;;17.30;86.20;;;;;;4947407;28;20358;-68
2023/08/02 07:38:46;;;;;;;20.23;2.97;;;17.20;86.30;;;;;;4947184;28;20066;-68
2023/08/02 07:41:14;;;;;;;26.77;4.35;;;17.10;87.00;;;;;;4950828;28;20101;-66
2023/08/02 07:43:41;;;;;;;19.60;2.80;;;17.00;87.70;;;;;;4944934;28;20062;-69
2023/08/02 07:46:20;;;;;;;16.73;3.05;;;17.00;87.90;;;;;;4951538;28;20106;-70
2023/08/02 07:48:49;;;;;;;23.88;3.70;;;17.00;88.20;;;;;;4949107;28;20046;-68
2023/08/02 07:51:16;;;;;;;17.65;3.03;;;16.90;88.50;;;;;;4948173;28;20042;-69
2023/08/02 07:53:44;;;;;;;18.55;4.05;;;16.80;88.80;;;;;;4949044;28;20030;-69
2023/08/02 07:56:11;;;;;;;17.80;4.10;;;16.70;89.40;;;;;;4951910;28;20035;-67
2023/08/02 07:58:39;;;;;;;20.60;3.85;;;16.70;89.80;;;;;;4953293;28;20125;-69
2023/08/02 08:01:10;;;;;;;22.10;4.80;;;16.70;90.00;;;;;;4950074;28;20024;-69
2023/08/02 08:03:38;;;;;;;26.23;3.55;;;16.70;90.00;;;;;;4945992;28;20485;-69
2023/08/02 08:06:13;;;;;;;19.08;3.83;;;16.70;90.00;;;;;;4953282;28;20058;-69
2023/08/02 08:08:42;;;;;;;13.73;2.95;;;16.60;90.00;;;;;;4947706;28;20027;-69
2023/08/02 08:11:09;;;;;;;22.90;4.07;;;16.50;90.10;;;;;;4943328;28;20512;-70
2023/08/02 08:13:37;;;;;;;20.92;4.55;;;16.30;90.50;;;;;;4948286;28;20166;-70
2023/08/02 08:16:04;;;;;;;18.08;3.85;;;16.20;90.90;;;;;;4948459;28;20039;-69
2023/08/02 08:18:32;;;;;;;18.45;4.15;;;16.20;90.90;;;;;;4952166;28;20019;-69
2023/08/02 08:21:04;;;;;;;16.52;4.38;;;16.20;91.10;;;;;;4951919;28;20476;-69
2023/08/02 08:23:32;;;;;;;26.35;4.53;;;16.10;91.20;;;;;;4947236;28;20528;-69
2023/08/02 08:25:59;;;;;;;26.92;3.90;;;16.00;91.30;;;;;;4950247;28;20023;-69
2023/08/02 08:28:27;;;;;;;16.27;3.80;;;16.00;91.30;;;;;;4953744;28;20022;-69
2023/08/02 08:31:04;;;;;;;23.05;3.75;;;16.00;91.50;;;;;;4955038;28;20043;-69
2023/08/02 08:33:32;;;;;;;26.95;4.38;;;16.00;91.50;;;;;;4946833;28;20503;-68
2023/08/02 08:36:00;;;;;;;22.55;3.88;;;15.90;91.50;;;;;;4950887;28;20098;-69
2023/08/02 08:38:27;;;;;;;16.83;3.13;;;15.90;91.60;;;;;;4948182;28;20040;-68
2023/08/02 08:40:57;;;;;;;14.50;3.35;;;15.90;91.70;;;;;;4954516;28;20027;-68
2023/08/02 08:43:28;;;;;;;29.50;4.57;;;15.80;91.80;;;;;;4950523;28;20500;-70
2023/08/02 08:45:59;;;;;;;16.70;3.13;;;15.70;92.00;;;;;;4953198;28;20028;-70
2023/08/02 08:48:27;;;;;;;24.77;4.40;;;15.70;92.00;;;;;;4952003;28;20366;-68
2023/08/02 08:50:56;;;;;;;19.63;3.55;;;15.60;92.20;;;;;;4950161;28;20030;-70
2023/08/02 08:53:33;;;;;;;19.42;3.47;;;15.50;92.50;;;;;;4946414;28;20031;-69
2023/08/02 08:56:03;;;;;;;23.67;4.20;;;15.40;92.70;;;;;;4957314;28;20511;-70
2023/08/02 08:58:33;;;;;;;20.48;3.90;;;15.40;92.90;;;;;;4948495;28;20049;-69
2023/08/02 09:01:03;;;;;;;21.52;3.50;;;15.30;93.00;;;;;;4951833;28;20031;-69
2023/08/02 09:03:31;;;;;;;14.93;3.70;;;15.20;93.30;;;;;;4949893;28;20548;-68
2023/08/02 09:06:03;;;;;;;25.95;4.82;;;15.20;93.40;;;;;;4956956;28;20106;-69
2023/08/02 09:08:42;;;;;;;22.98;4.80;;;15.30;93.10;;;;;;4948375;28;20118;-69
2023/08/02 09:11:09;;;;;;;21.27;4.10;;;15.20;93.20;;;;;;4949464;28;20042;-68
2023/08/02 09:13:37;;;;;;;25.45;4.57;;;15.10;93.40;;;;;;4951743;28;20104;-69
2023/08/02 09:16:12;;;;;;;17.10;4.38;;;15.10;93.60;;;;;;4951460;28;20508;-69
2023/08/02 09:18:41;;;;;;;20.75;4.05;;;15.00;93.60;;;;;;4950901;28;20031;-69
2023/08/02 09:21:14;;;;;;;23.08;4.97;;;14.90;93.70;;;;;;4946723;28;20031;-68
2023/08/02 09:24:02;;;;;;;20.55;4.93;;;14.80;93.40;;;;;;4949794;28;20493;-68
2023/08/02 09:26:29;;;;;;;21.73;4.25;;;14.70;93.60;;;;;;4951039;28;20034;-70
2023/08/02 09:29:03;;;;;;;22.15;4.10;;;14.50;93.80;;;;;;4949340;28;20178;-69
2023/08/02 09:31:33;;;;;;;15.63;4.55;;;14.40;93.70;;;;;;4951714;28;20035;-68
2023/08/02 09:34:01;;;;;;;18.70;6.03;;;14.30;94.00;;;;;;4948707;28;20535;-71
2023/08/02 09:36:30;;;;;;;14.00;4.10;;;14.30;93.90;;;;;;4950106;28;20027;-69
2023/08/02 09:39:01;;;;;;;26.70;5.60;;;14.10;93.80;;;;;;4945831;28;20048;-70
2023/08/02 09:41:29;;;;;;;18.55;4.75;;;14.00;94.00;;;;;;4949054;28;20065;-69
2023/08/02 09:43:57;;;;;;;25.77;5.20;;;13.90;94.00;;;;;;4948892;28;20066;-70
2023/08/02 09:46:30;;;;;;;13.23;4.43;;;13.90;94.10;;;;;;4949117;28;20070;-69
2023/08/02 09:48:59;;;;;;;21.95;5.72;;;13.80;94.10;;;;;;4948759;28;20035;-69
2023/08/02 09:51:43;;;;;;;16.48;5.57;;;13.70;94.20;;;;;;4947395;28;20030;-69
2023/08/02 09:54:19;;;;;;;20.92;5.22;;;13.70;94.50;;;;;;4950295;28;20057;-70
2023/08/02 09:56:54;;;;;;;25.73;5.75;;;13.60;94.40;;;;;;4950418;28;20189;-69
2023/08/02 09:59:21;;;;;;;25.48;5.88;;;13.50;94.40;;;;;;4933850;28;20062;-68
2023/08/02 10:01:49;;;;;;;16.25;5.00;;;13.50;94.50;;;;;;4950404;28;20026;-68
2023/08/02 10:04:18;;;;;;;16.05;4.97;;;13.50;94.60;;;;;;4948233;28;20043;-68
2023/08/02 10:06:52;;;;;;;20.73;4.85;;;13.40;94.60;;;;;;4950953;28;20422;-68
2023/08/02 10:09:30;;;;;;;22.60;5.03;;;13.40;94.80;;;;;;4948758;28;20031;-68
2023/08/02 10:12:17;;;;;;;15.38;5.28;;;13.30;95.00;;;;;;4951827;28;20042;-69
2023/08/02 10:14:46;;;;;;;18.65;5.10;;;13.30;94.80;;;;;;4952727;28;20051;-69
2023/08/02 10:17:14;;;;;;;21.23;4.97;;;13.20;95.10;;;;;;4934254;28;20146;-68
2023/08/02 10:19:41;;;;;;;20.67;4.38;;;13.20;95.10;;;;;;4966525;28;20110;-69
2023/08/02 10:22:11;;;;;;;28.05;6.28;;;13.10;95.20;;;;;;4949867;28;20038;-69
2023/08/02 10:24:41;;;;;;;15.90;5.18;;;13.00;95.00;;;;;;4946781;28;20051;-69
2023/08/02 10:27:09;;;;;;;16.15;4.35;;;13.00;95.10;;;;;;4951816;28;20041;-69
2023/08/02 10:29:38;;;;;;;26.25;5.88;;;12.90;95.00;;;;;;4955375;28;20033;-69
2023/08/02 10:32:17;;;;;;;15.75;4.78;;;12.90;95.00;;;;;;4947559;28;20059;-69
2023/08/02 10:34:51;;;;;;;25.45;5.20;;;12.80;95.10;;;;;;4949898;28;20163;-70
2023/08/02 10:37:20;;;;;;;19.33;5.00;;;12.80;95.10;;;;;;4947079;28;20487;-69
2023/08/02 10:39:48;;;;;;;21.00;5.38;;;12.70;95.10;;;;;;4947421;28;20023;-69
2023/08/02 10:42:17;;;;;;;18.20;5.40;;;12.70;95.40;;;;;;4949102;28;20055;-69
2023/08/02 10:44:56;;;;;;;20.80;5.97;;;12.70;95.30;;;;;;4947434;28;20043;-69
2023/08/02 10:47:25;;;;;;;29.42;6.32;;;12.60;95.40;;;;;;4961041;28;20038;-69
2023/08/02 10:49:53;;;;;;;20.25;6.70;;;12.50;95.40;;;;;;4949084;28;20031;-69
2023/08/02 10:52:31;;;;;;;23.38;6.00;;;12.60;95.80;;;;;;4951161;28;20539;-69
2023/08/02 10:55:06;;;;;;;18.00;6.05;;;12.50;95.50;;;;;;4946856;28;20026;-69
2023/08/02 10:57:35;;;;;;;19.48;6.20;;;12.40;95.80;;;;;;4944802;28;20046;-69
2023/08/02 11:00:14;;;;;;;21.00;5.60;;;12.40;95.60;;;;;;4950696;28;20031;-70
2023/08/02 11:05:49;;;;;;;21.63;6.70;;;12.20;95.70;;;;;;4945691;28;20051;-68
2023/08/02 11:08:17;;;;;;;19.60;5.95;;;12.20;95.80;;;;;;4962592;28;20038;-69
2023/08/02 11:10:48;;;;;;;24.25;6.45;;;12.20;95.80;;;;;;4952254;28;20046;-69
2023/08/02 11:13:16;;;;;;;19.50;6.75;;;12.10;95.80;;;;;;4942504;28;20074;-69
2023/08/02 11:15:44;;;;;;;20.73;5.05;;;12.20;95.90;;;;;;4950898;28;20073;-68
2023/08/02 11:18:11;;;;;;;23.17;5.18;;;12.20;96.00;;;;;;4950086;28;20066;-69
2023/08/02 11:20:39;;;;;;;26.60;6.47;;;12.30;96.10;;;;;;4948656;28;20042;-68
2023/08/02 11:23:23;;;;;;;16.13;5.10;;;12.40;96.30;;;;;;4951387;28;20440;-68
2023/08/02 11:26:05;;;;;;;19.35;5.72;;;12.40;96.40;;;;;;4938759;28;20414;-70
2023/08/02 11:28:43;;;;;;;19.88;5.63;;;12.40;96.70;;;;;;4937793;28;20475;-69
2023/08/02 11:31:15;;;;;;;18.48;5.80;;;12.50;96.70;;;;;;4947859;28;20028;-69
2023/08/02 11:33:42;;;;;;;19.20;4.80;;;12.60;96.70;;;;;;4925134;28;20174;-70
2023/08/02 11:36:10;;;;;;;20.33;5.78;;;12.60;96.60;;;;;;4953162;28;20024;-68
2023/08/02 11:38:38;;;;;;;27.48;5.65;;;12.60;96.60;;;;;;4954070;28;20034;-68
2023/08/02 11:41:20;;;;;;;17.35;4.85;;;12.60;96.70;;;;;;4948995;28;20078;-68
2023/08/02 11:43:48;;;;;;;24.65;6.38;;;12.70;96.70;;;;;;4948807;28;20042;-68
2023/08/02 11:46:21;;;;;;;18.85;5.60;;;12.70;96.80;;;;;;4945559;28;20031;-69
2023/08/02 11:48:49;;;;;;;24.45;6.10;;;12.70;96.80;;;;;;4948790;28;20427;-70
2023/08/02 11:51:19;;;;;;;22.23;5.55;;;12.80;96.80;;;;;;4953743;28;20123;-68
2023/08/02 11:53:58;;;;;;;22.50;5.53;;;12.80;96.60;;;;;;4948021;28;20106;-68
2023/08/02 11:56:27;;;;;;;21.27;5.15;;;12.90;96.50;;;;;;4939629;28;20033;-68
2023/08/02 11:58:56;;;;;;;17.00;5.28;;;12.90;96.40;;;;;;4938033;28;20047;-68
2023/08/02 12:01:24;;;;;;;21.42;5.40;;;12.90;96.50;;;;;;4951128;28;20116;-68
2023/08/02 12:04:00;;;;;;;22.55;5.28;;;12.90;96.40;;;;;;4951296;28;20038;-69
2023/08/02 12:06:43;;;;;;;17.33;4.82;;;13.00;96.30;;;;;;4951475;28;20621;-70
2023/08/02 12:09:10;;;;;;;25.30;5.13;;;12.90;96.20;;;;;;4952131;28;20031;-69
2023/08/02 12:11:38;;;;;;;22.38;6.22;;;12.90;96.20;;;;;;4940264;28;20082;-69
2023/08/02 12:14:06;;;;;;;18.10;4.78;;;12.80;96.10;;;;;;4952418;28;20485;-68
2023/08/02 12:16:46;;;;;;;19.40;5.03;;;12.80;96.20;;;;;;4951944;28;20031;-69
2023/08/02 12:19:13;;;;;;;21.88;4.85;;;12.80;96.20;;;;;;4956335;28;20488;-69
2023/08/02 12:21:43;;;;;;;19.65;4.80;;;12.60;96.10;;;;;;4947952;28;20039;-68
2023/08/02 12:24:17;;;;;;;21.17;5.30;;;12.50;96.20;;;;;;4947164;28;20138;-69
2023/08/02 12:26:46;;;;;;;26.92;4.63;;;12.40;96.50;;;;;;4945584;28;20023;-69
2023/08/02 12:29:25;;;;;;;24.92;4.60;;;12.40;96.30;;;;;;4920622;28;20031;-68
2023/08/02 12:31:55;;;;;;;30.27;6.55;;;12.30;96.70;;;;;;4958316;28;20035;-68
2023/08/02 12:34:27;;;;;;;24.77;4.75;;;12.20;96.80;;;;;;4940266;28;20031;-68
2023/08/02 12:36:59;;;;;;;25.30;4.85;;;12.20;96.80;;;;;;4947366;28;20453;-70
2023/08/02 12:39:27;;;;;;;27.38;4.25;;;12.10;96.70;;;;;;4950133;28;20039;-69
2023/08/02 12:41:55;;;;;;;23.63;5.25;;;12.10;97.00;;;;;;4941906;28;20489;-68
2023/08/02 12:44:22;;;;;;;22.48;5.07;;;12.00;97.10;;;;;;4953088;28;20043;-69
2023/08/02 12:46:50;;;;;;;27.90;4.53;;;12.00;97.10;;;;;;4949080;28;20433;-68
2023/08/02 12:49:19;;;;;;;17.55;4.40;;;12.00;97.10;;;;;;4943906;28;20046;-69